createdAt,value
2023-01-22T00:01:05.061Z,33.50
2023-01-22T00:03:32.105Z,33.45
2023-01-22T00:05:59.129Z,33.75
2023-01-22T00:08:26.020Z,34.50
2023-01-22T00:10:53.250Z,36.80
2023-01-22T00:13:23.770Z,36.28
2023-01-22T00:15:50.789Z,36.88
2023-01-22T00:18:18.100Z,35.35
2023-01-22T00:20:52.869Z,34.20
2023-01-22T00:23:20.161Z,36.75
2023-01-22T00:25:47.118Z,36.92
2023-01-22T00:28:14.554Z,36.22
2023-01-22T00:30:41.437Z,34.50
2023-01-22T00:33:08.416Z,34.85
2023-01-22T00:35:35.784Z,33.72
2023-01-22T00:38:03.856Z,34.30
2023-01-22T00:40:30.974Z,35.08
2023-01-22T00:42:58.009Z,34.65
2023-01-22T00:45:24.978Z,31.90
2023-01-22T00:47:52.111Z,32.97
2023-01-22T00:50:19.578Z,30.42
2023-01-22T00:52:46.753Z,31.30
2023-01-22T00:55:13.666Z,33.78
2023-01-22T00:57:40.662Z,35.60
2023-01-22T01:00:08.257Z,32.13
2023-01-22T01:02:55.216Z,30.90
2023-01-22T01:05:22.143Z,31.40
2023-01-22T01:07:49.093Z,30.58
2023-01-22T01:10:16.883Z,29.92
2023-01-22T01:12:43.905Z,31.23
2023-01-22T01:15:11.265Z,28.67
2023-01-22T01:17:39.333Z,26.42
2023-01-22T01:20:06.752Z,28.52
2023-01-22T01:22:33.758Z,27.73
2023-01-22T01:25:00.709Z,28.38
2023-01-22T01:27:29.293Z,25.02
2023-01-22T01:29:57.676Z,28.58
2023-01-22T01:32:24.972Z,24.98
2023-01-22T01:34:51.860Z,27.08
2023-01-22T01:37:18.815Z,23.55
2023-01-22T01:39:45.755Z,30.35
2023-01-22T01:42:13.239Z,27.80
2023-01-22T01:44:40.483Z,29.60
2023-01-22T01:47:13.021Z,25.98
2023-01-22T01:49:50.962Z,27.90
2023-01-22T01:52:18.403Z,28.38
2023-01-22T01:54:47.608Z,29.08
2023-01-22T01:57:20.737Z,27.63
2023-01-22T01:59:47.727Z,23.95
2023-01-22T02:02:14.878Z,27.15
2023-01-22T02:04:43.317Z,27.55
2023-01-22T02:07:10.486Z,23.48
2023-01-22T02:09:38.176Z,23.57
2023-01-22T02:12:05.439Z,24.80
2023-01-22T02:14:33.896Z,24.67
2023-01-22T02:17:01.804Z,21.90
2023-01-22T02:19:28.705Z,24.17
2023-01-22T02:21:55.645Z,24.10
2023-01-22T02:24:22.598Z,24.33
2023-01-22T02:26:49.522Z,23.95
2023-01-22T02:29:20.074Z,24.52
2023-01-22T02:31:47.938Z,23.50
2023-01-22T02:34:14.981Z,26.02
2023-01-22T02:36:44.396Z,28.10
2023-01-22T02:39:11.340Z,28.33
2023-01-22T02:41:38.443Z,26.10
2023-01-22T02:44:07.459Z,25.00
2023-01-22T02:46:34.573Z,24.77
2023-01-22T02:49:01.476Z,25.73
2023-01-22T02:51:31.832Z,28.97
2023-01-22T02:53:58.803Z,30.10
2023-01-22T02:56:25.848Z,25.80
2023-01-22T02:58:52.784Z,22.67
2023-01-22T03:01:22.200Z,24.65
2023-01-22T03:04:09.374Z,23.55
2023-01-22T03:06:36.825Z,26.03
2023-01-22T03:09:03.864Z,27.83
2023-01-22T03:11:35.739Z,24.13
2023-01-22T03:14:23.594Z,23.30
2023-01-22T03:17:11.451Z,31.17
2023-01-22T03:19:56.926Z,27.30
2023-01-22T03:22:24.001Z,24.13
2023-01-22T03:24:52.687Z,26.25
2023-01-22T03:27:23.853Z,26.48
2023-01-22T03:29:51.303Z,26.43
2023-01-22T03:32:19.824Z,24.67
2023-01-22T03:34:46.728Z,22.80
2023-01-22T03:37:14.702Z,26.80
2023-01-22T03:39:44.305Z,22.13
2023-01-22T03:42:17.811Z,22.30
2023-01-22T03:44:45.225Z,20.83
2023-01-22T03:47:12.364Z,21.90
2023-01-22T03:49:39.594Z,23.20
2023-01-22T03:52:06.662Z,24.77
2023-01-22T03:54:33.862Z,24.03
2023-01-22T03:57:03.500Z,25.70
2023-01-22T03:59:33.676Z,22.10
2023-01-22T04:02:00.754Z,21.27
2023-01-22T04:04:29.026Z,21.40
2023-01-22T04:06:56.099Z,23.10
2023-01-22T04:09:23.428Z,24.63
2023-01-22T04:11:50.585Z,23.33
2023-01-22T04:14:18.553Z,22.57
2023-01-22T04:16:57.808Z,21.33
2023-01-22T04:19:50.848Z,23.27
2023-01-22T04:22:40.825Z,22.67
2023-01-22T04:25:09.661Z,23.67
2023-01-22T04:27:37.964Z,26.00
2023-01-22T04:30:08.360Z,23.53
2023-01-22T04:32:35.905Z,25.70
2023-01-22T04:35:23.088Z,23.07
2023-01-22T04:37:54.018Z,31.47
2023-01-22T04:40:21.024Z,23.07
2023-01-22T04:42:49.266Z,24.23
2023-01-22T04:45:16.564Z,24.83
2023-01-22T04:47:44.684Z,25.47
2023-01-22T04:50:21.608Z,24.13
2023-01-22T04:52:50.556Z,23.40
2023-01-22T04:55:17.611Z,24.77
2023-01-22T04:57:56.665Z,27.73
2023-01-22T05:00:23.895Z,25.47
2023-01-22T05:02:50.982Z,25.30
2023-01-22T05:05:18.119Z,24.83
2023-01-22T05:07:45.133Z,23.67
2023-01-22T05:10:12.209Z,23.93
2023-01-22T05:12:39.125Z,22.10
2023-01-22T05:15:14.947Z,24.03
2023-01-22T05:17:50.734Z,27.87
2023-01-22T05:20:18.089Z,25.37
2023-01-22T05:22:45.811Z,28.80
2023-01-22T05:25:13.328Z,27.50
2023-01-22T05:27:40.780Z,29.33
2023-01-22T05:30:13.968Z,26.53
2023-01-22T05:33:06.321Z,25.97
2023-01-22T05:35:33.220Z,29.40
2023-01-22T05:38:00.323Z,28.40
2023-01-22T05:40:27.336Z,26.50
2023-01-22T05:42:54.401Z,28.37
2023-01-22T05:45:22.081Z,25.03
2023-01-22T05:48:08.071Z,26.53
2023-01-22T05:51:08.191Z,23.30
2023-01-22T05:53:35.359Z,25.70
2023-01-22T05:56:03.031Z,26.73
2023-01-22T05:58:34.093Z,28.02
2023-01-22T06:01:01.539Z,25.80
2023-01-22T06:06:01.564Z,27.37
2023-01-22T06:08:28.719Z,28.00
2023-01-22T06:11:00.393Z,28.60
2023-01-22T06:13:28.948Z,26.30
2023-01-22T06:16:00.229Z,28.00
2023-01-22T06:18:56.112Z,27.80
2023-01-22T06:21:26.221Z,27.37
2023-01-22T06:23:54.284Z,23.93
2023-01-22T06:26:21.439Z,26.57
2023-01-22T06:28:48.469Z,28.57
2023-01-22T06:31:15.641Z,27.73
2023-01-22T06:33:42.728Z,28.20
2023-01-22T06:36:09.876Z,26.67
2023-01-22T06:38:37.595Z,28.23
2023-01-22T06:41:06.515Z,29.67
2023-01-22T06:43:33.855Z,30.13
2023-01-22T06:46:01.049Z,26.23
2023-01-22T06:48:50.793Z,26.43
2023-01-22T06:51:17.813Z,31.90
2023-01-22T06:53:46.237Z,27.73
2023-01-22T06:56:13.280Z,30.43
2023-01-22T06:58:40.683Z,28.47
2023-01-22T07:01:07.725Z,34.80
2023-01-22T07:03:34.713Z,49.60
2023-01-22T07:06:02.716Z,51.83
2023-01-22T07:08:30.604Z,91.50
2023-01-22T07:10:57.814Z,72.73
2023-01-22T07:13:24.738Z,66.77
2023-01-22T07:15:51.698Z,48.13
2023-01-22T07:18:20.949Z,51.63
2023-01-22T07:20:47.982Z,46.47
2023-01-22T07:23:14.972Z,42.17
2023-01-22T07:25:42.110Z,39.00
2023-01-22T07:28:09.000Z,41.47
2023-01-22T07:30:35.946Z,38.63
2023-01-22T07:33:03.147Z,41.00
2023-01-22T07:35:30.404Z,43.40
2023-01-22T07:37:58.397Z,38.53
2023-01-22T07:40:25.645Z,37.63
2023-01-22T07:42:53.216Z,46.80
2023-01-22T07:45:20.300Z,51.47
2023-01-22T07:47:54.828Z,44.50
2023-01-22T07:50:22.916Z,49.37
2023-01-22T07:52:49.866Z,53.70
2023-01-22T07:55:16.800Z,51.50
2023-01-22T07:57:43.922Z,49.13
2023-01-22T08:00:11.360Z,47.53
2023-01-22T08:02:42.282Z,54.80
2023-01-22T08:05:09.715Z,47.28
2023-01-22T08:07:36.697Z,50.87
2023-01-22T08:10:03.761Z,46.00
2023-01-22T08:12:30.730Z,50.67
2023-01-22T08:14:57.626Z,47.17
2023-01-22T08:17:24.561Z,46.50
2023-01-22T08:19:51.490Z,48.60
2023-01-22T08:22:18.411Z,47.47
2023-01-22T08:24:45.319Z,52.60
2023-01-22T08:27:12.310Z,47.63
2023-01-22T08:29:39.231Z,46.07
2023-01-22T08:32:06.979Z,42.55
2023-01-22T08:34:33.998Z,47.53
2023-01-22T08:37:00.922Z,48.88
2023-01-22T08:39:27.841Z,55.17
2023-01-22T08:41:57.792Z,73.57
2023-01-22T08:44:25.546Z,76.55
2023-01-22T08:46:52.623Z,67.95
2023-01-22T08:49:21.735Z,54.05
2023-01-22T08:51:50.410Z,58.97
2023-01-22T08:54:20.112Z,57.20
2023-01-22T08:56:48.094Z,48.03
2023-01-22T08:59:15.833Z,52.45
2023-01-22T09:01:42.905Z,81.35
2023-01-22T09:04:10.241Z,71.97
2023-01-22T09:06:37.699Z,63.92
2023-01-22T09:09:04.954Z,62.78
2023-01-22T09:11:32.195Z,44.80
2023-01-22T09:13:59.551Z,52.50
2023-01-22T09:16:27.231Z,53.92
2023-01-22T09:18:54.255Z,48.92
2023-01-22T09:21:21.230Z,63.42
2023-01-22T09:23:48.245Z,58.38
2023-01-22T09:26:15.186Z,59.95
2023-01-22T09:28:42.279Z,85.45
2023-01-22T09:31:13.677Z,91.05
2023-01-22T09:33:40.570Z,52.70
2023-01-22T09:36:12.086Z,67.10
2023-01-22T09:38:39.108Z,60.67
2023-01-22T09:41:29.590Z,68.35
2023-01-22T09:44:00.562Z,76.50
2023-01-22T09:46:37.139Z,74.43
2023-01-22T09:49:08.486Z,68.97
2023-01-22T09:51:37.824Z,75.07
2023-01-22T09:54:07.302Z,62.00
2023-01-22T09:56:37.332Z,81.30
2023-01-22T09:59:05.196Z,62.03
2023-01-22T10:01:32.588Z,122.88
2023-01-22T10:04:05.135Z,109.35
2023-01-22T10:06:32.613Z,115.38
2023-01-22T10:09:16.078Z,87.35
2023-01-22T10:11:43.479Z,107.97
2023-01-22T10:14:15.002Z,104.55
2023-01-22T10:16:41.986Z,110.68
2023-01-22T10:19:14.930Z,105.47
2023-01-22T10:21:47.709Z,94.03
2023-01-22T10:24:15.009Z,88.75
2023-01-22T10:26:54.706Z,78.18
2023-01-22T10:29:32.169Z,71.65
2023-01-22T10:32:04.010Z,66.95
2023-01-22T10:34:36.289Z,67.32
2023-01-22T10:37:14.666Z,71.45
2023-01-22T10:39:43.101Z,78.43
2023-01-22T10:42:17.267Z,68.38
2023-01-22T10:44:44.216Z,76.90
2023-01-22T10:47:20.955Z,61.72
2023-01-22T10:49:48.952Z,69.70
2023-01-22T10:52:38.927Z,59.20
2023-01-22T10:55:07.460Z,55.05
2023-01-22T10:57:37.659Z,64.03
2023-01-22T11:00:07.776Z,59.63
2023-01-22T11:02:35.419Z,65.63
2023-01-22T11:05:19.363Z,57.60
2023-01-22T11:07:47.905Z,59.33
2023-01-22T11:10:19.545Z,65.75
2023-01-22T11:12:52.614Z,74.22
2023-01-22T11:15:44.961Z,66.75
2023-01-22T11:20:50.872Z,73.53
2023-01-22T11:23:38.134Z,59.17
2023-01-22T11:26:20.665Z,75.03
2023-01-22T11:29:04.868Z,60.78
2023-01-22T11:31:56.065Z,66.30
2023-01-22T11:34:32.432Z,70.18
2023-01-22T11:37:11.907Z,62.47
2023-01-22T11:39:48.199Z,58.92
2023-01-22T11:42:34.781Z,62.58
2023-01-22T11:45:10.679Z,59.35
2023-01-22T11:48:05.654Z,58.88
2023-01-22T11:50:48.880Z,63.03
2023-01-22T11:53:25.990Z,62.03
2023-01-22T11:56:17.291Z,64.15
2023-01-22T11:59:04.761Z,63.78
2023-01-22T12:01:41.176Z,68.15
2023-01-22T12:04:41.930Z,64.22
2023-01-22T12:07:31.109Z,61.58
2023-01-22T12:10:16.300Z,62.40
2023-01-22T12:13:00.936Z,61.90
2023-01-22T12:15:40.166Z,61.78
2023-01-22T12:18:25.949Z,61.45
2023-01-22T12:21:17.584Z,60.78
2023-01-22T12:23:54.035Z,62.25
2023-01-22T12:26:48.557Z,64.78
2023-01-22T12:29:20.011Z,60.97
2023-01-22T12:31:51.488Z,60.22
2023-01-22T12:35:06.404Z,63.97
2023-01-22T12:37:40.193Z,63.05
2023-01-22T12:40:15.895Z,55.55
2023-01-22T12:43:02.212Z,59.80
2023-01-22T12:45:38.280Z,62.80
2023-01-22T12:48:38.228Z,61.25
2023-01-22T12:51:05.329Z,60.90
2023-01-22T12:53:36.605Z,58.58
2023-01-22T12:56:07.470Z,60.83
2023-01-22T12:58:36.259Z,59.13
2023-01-22T13:01:09.281Z,61.47
2023-01-22T13:03:36.362Z,57.70
2023-01-22T13:06:04.884Z,55.90
2023-01-22T13:08:42.538Z,53.78
2023-01-22T13:11:14.872Z,58.97
2023-01-22T13:13:51.104Z,54.95
2023-01-22T13:16:37.577Z,54.75
2023-01-22T13:19:28.453Z,52.55
2023-01-22T13:21:58.132Z,54.47
2023-01-22T13:24:25.134Z,52.15
2023-01-22T13:26:53.270Z,51.03
2023-01-22T13:29:28.953Z,52.53
2023-01-22T13:32:00.642Z,51.08
2023-01-22T13:34:27.878Z,50.50
2023-01-22T13:36:55.610Z,54.00
2023-01-22T13:39:30.631Z,54.65
2023-01-22T13:41:59.319Z,51.22
2023-01-22T13:44:28.236Z,47.78
2023-01-22T13:46:55.335Z,49.42
2023-01-22T13:49:29.964Z,41.22
2023-01-22T13:51:58.689Z,44.15
2023-01-22T13:54:44.883Z,36.42
2023-01-22T13:57:13.421Z,34.78
2023-01-22T13:59:40.364Z,31.58
2023-01-22T14:02:20.001Z,29.38
2023-01-22T14:04:47.176Z,25.40
2023-01-22T14:07:46.931Z,30.70
2023-01-22T14:10:21.973Z,25.77
2023-01-22T14:13:01.413Z,23.80
2023-01-22T14:15:28.765Z,15.57
2023-01-22T14:18:11.902Z,15.93
2023-01-22T14:20:40.550Z,14.23
2023-01-22T14:23:07.621Z,13.23
2023-01-22T14:25:53.837Z,12.10
2023-01-22T14:28:21.827Z,11.35
2023-01-22T14:30:49.014Z,12.57
2023-01-22T14:33:24.894Z,12.32
2023-01-22T14:35:52.373Z,10.18
2023-01-22T14:38:19.486Z,10.95
2023-01-22T14:40:46.484Z,11.07
2023-01-22T14:43:13.562Z,9.50
2023-01-22T14:45:41.246Z,8.05
2023-01-22T14:48:10.610Z,8.68
2023-01-22T14:50:39.281Z,8.43
2023-01-22T14:53:06.758Z,10.05
2023-01-22T14:55:33.784Z,10.07
2023-01-22T14:58:01.804Z,11.20
2023-01-22T15:00:29.478Z,12.40
2023-01-22T15:02:57.213Z,13.75
2023-01-22T15:05:24.593Z,13.52
2023-01-22T15:07:51.508Z,7.88
2023-01-22T15:10:19.234Z,9.00
2023-01-22T15:12:48.170Z,9.38
2023-01-22T15:15:23.184Z,11.38
2023-01-22T15:17:52.925Z,12.23
2023-01-22T15:20:21.106Z,10.73
2023-01-22T15:22:49.633Z,10.57
2023-01-22T15:25:16.980Z,13.90
2023-01-22T15:27:44.657Z,11.60
2023-01-22T15:30:12.428Z,12.95
2023-01-22T15:32:39.411Z,10.02
2023-01-22T15:35:06.818Z,12.35
2023-01-22T15:37:33.769Z,10.57
2023-01-22T15:40:00.871Z,11.60
2023-01-22T15:42:27.928Z,10.25
2023-01-22T15:44:54.885Z,10.98
2023-01-22T15:47:21.852Z,9.93
2023-01-22T15:49:48.831Z,12.90
2023-01-22T15:52:15.791Z,10.80
2023-01-22T15:54:42.824Z,11.32
2023-01-22T15:57:09.787Z,13.20
2023-01-22T15:59:38.983Z,13.43
2023-01-22T16:02:06.224Z,11.98
2023-01-22T16:04:33.337Z,11.48
2023-01-22T16:07:00.340Z,12.63
2023-01-22T16:09:27.273Z,12.00
2023-01-22T16:11:54.483Z,12.18
2023-01-22T16:14:21.571Z,12.73
2023-01-22T16:16:48.645Z,13.18
2023-01-22T16:19:15.631Z,11.68
2023-01-22T16:21:45.080Z,11.60
2023-01-22T16:24:12.074Z,13.35
2023-01-22T16:26:39.166Z,14.02
2023-01-22T16:29:06.292Z,12.52
2023-01-22T16:31:34.788Z,15.20
2023-01-22T16:34:13.527Z,14.80
2023-01-22T16:36:40.766Z,12.88
2023-01-22T16:39:07.913Z,14.63
2023-01-22T16:41:36.172Z,17.55
2023-01-22T16:44:17.391Z,17.52
2023-01-22T16:46:46.101Z,28.37
2023-01-22T16:49:14.648Z,23.00
2023-01-22T16:51:44.011Z,28.67
2023-01-22T16:54:18.363Z,27.80
2023-01-22T16:56:45.483Z,30.95
2023-01-22T16:59:12.944Z,27.38
2023-01-22T17:01:41.432Z,26.50
2023-01-22T17:04:08.697Z,32.80
2023-01-22T17:06:47.040Z,31.50
2023-01-22T17:09:22.480Z,35.08
2023-01-22T17:11:50.821Z,27.55
2023-01-22T17:14:20.053Z,34.85
2023-01-22T17:16:47.211Z,35.42
2023-01-22T17:19:14.446Z,38.17
2023-01-22T17:21:41.633Z,31.77
2023-01-22T17:24:09.977Z,37.05
2023-01-22T17:26:37.085Z,35.80
2023-01-22T17:29:04.178Z,37.47
2023-01-22T17:31:31.572Z,34.97
2023-01-22T17:33:59.289Z,36.88
2023-01-22T17:36:28.495Z,37.33
2023-01-22T17:38:56.539Z,38.33
2023-01-22T17:41:24.464Z,40.05
2023-01-22T17:43:58.760Z,38.92
2023-01-22T17:46:28.991Z,38.97
2023-01-22T17:48:56.244Z,41.38
2023-01-22T17:51:27.606Z,39.15
2023-01-22T17:53:55.627Z,39.63
2023-01-22T17:56:27.363Z,43.42
2023-01-22T17:58:56.193Z,40.97
2023-01-22T18:01:24.379Z,42.85
2023-01-22T18:03:51.564Z,44.78
2023-01-22T18:06:18.739Z,45.90
2023-01-22T18:08:45.826Z,49.60
2023-01-22T18:11:20.417Z,49.75
2023-01-22T18:13:47.862Z,50.40
2023-01-22T18:16:16.444Z,56.03
2023-01-22T18:19:03.438Z,48.92
2023-01-22T18:21:33.567Z,55.00
2023-01-22T18:24:01.394Z,58.17
2023-01-22T18:26:28.713Z,59.72
2023-01-22T18:28:56.987Z,66.85
2023-01-22T18:31:27.806Z,55.28
2023-01-22T18:33:57.986Z,57.78
2023-01-22T18:36:25.967Z,54.55
2023-01-22T18:38:53.113Z,60.60
2023-01-22T18:41:23.771Z,60.35
2023-01-22T18:43:53.706Z,58.67
2023-01-22T18:46:21.189Z,61.80
2023-01-22T18:48:52.111Z,60.88
2023-01-22T18:51:19.043Z,59.85
2023-01-22T18:53:46.001Z,59.83
2023-01-22T18:56:13.010Z,62.15
2023-01-22T18:58:42.362Z,58.28
2023-01-22T19:01:14.685Z,58.65
2023-01-22T19:03:42.638Z,59.53
2023-01-22T19:06:15.950Z,56.30
2023-01-22T19:09:02.574Z,59.97
2023-01-22T19:11:31.349Z,53.45
2023-01-22T19:13:59.054Z,60.42
2023-01-22T19:16:26.534Z,59.75
2023-01-22T19:18:57.767Z,57.70
2023-01-22T19:21:25.701Z,65.00
2023-01-22T19:23:55.983Z,64.28
2023-01-22T19:26:31.387Z,60.33
2023-01-22T19:29:06.038Z,59.38
2023-01-22T19:31:34.953Z,59.30
2023-01-22T19:34:02.702Z,59.05
2023-01-22T19:36:31.114Z,58.53
2023-01-22T19:38:59.259Z,59.60
2023-01-22T19:41:26.649Z,59.00
2023-01-22T19:43:54.675Z,61.65
2023-01-22T19:46:21.701Z,61.50
2023-01-22T19:48:48.704Z,60.15
2023-01-22T19:51:17.343Z,61.58
2023-01-22T19:53:44.495Z,59.85
2023-01-22T19:56:23.196Z,61.13
2023-01-22T19:58:50.923Z,62.28
2023-01-22T20:01:18.984Z,66.38
2023-01-22T20:03:46.235Z,59.85
2023-01-22T20:06:13.689Z,64.40
2023-01-22T20:08:40.881Z,57.45
2023-01-22T20:11:09.185Z,63.60
2023-01-22T20:13:36.692Z,61.28
2023-01-22T20:16:04.098Z,61.40
2023-01-22T20:18:31.558Z,67.60
2023-01-22T20:20:59.831Z,75.53
2023-01-22T20:23:28.035Z,68.95
2023-01-22T20:25:55.558Z,69.82
2023-01-22T20:28:22.747Z,66.32
2023-01-22T20:31:04.055Z,68.72
2023-01-22T20:33:31.401Z,67.10
2023-01-22T20:35:59.755Z,71.82
2023-01-22T20:38:27.427Z,68.07
2023-01-22T20:40:54.475Z,66.45
2023-01-22T20:43:21.478Z,68.68
2023-01-22T20:45:58.416Z,67.65
2023-01-22T20:48:25.452Z,68.95
2023-01-22T20:50:53.064Z,64.07
2023-01-22T20:53:20.681Z,67.82
2023-01-22T20:55:48.838Z,71.15
2023-01-22T20:58:16.013Z,70.07
2023-01-22T21:00:43.332Z,65.85
2023-01-22T21:03:10.954Z,67.60
2023-01-22T21:05:39.767Z,67.25
2023-01-22T21:08:07.224Z,74.30
2023-01-22T21:10:34.223Z,70.70
2023-01-22T21:13:09.405Z,73.05
2023-01-22T21:15:46.708Z,67.07
2023-01-22T21:18:16.256Z,70.22
2023-01-22T21:20:43.262Z,66.90
2023-01-22T21:23:10.327Z,66.57
2023-01-22T21:25:37.311Z,68.63
2023-01-22T21:28:04.783Z,70.30
2023-01-22T21:30:31.892Z,69.30
2023-01-22T21:32:58.859Z,65.87
2023-01-22T21:35:25.930Z,67.90
2023-01-22T21:37:53.450Z,68.15
2023-01-22T21:40:20.879Z,66.27
2023-01-22T21:43:07.508Z,67.37
2023-01-22T21:45:53.497Z,60.42
2023-01-22T21:48:20.789Z,67.70
2023-01-22T21:50:47.795Z,64.93
2023-01-22T21:53:16.481Z,63.77
2023-01-22T21:55:53.479Z,63.60
2023-01-22T21:58:20.990Z,67.30
2023-01-22T22:00:48.469Z,61.03
2023-01-22T22:03:16.125Z,63.07
2023-01-22T22:05:43.202Z,67.23
2023-01-22T22:08:10.192Z,62.07
2023-01-22T22:10:37.172Z,60.45
2023-01-22T22:13:04.901Z,71.13
2023-01-22T22:15:33.278Z,70.28
2023-01-22T22:18:00.449Z,65.10
2023-01-22T22:20:29.128Z,63.23
2023-01-22T22:22:56.184Z,65.20
2023-01-22T22:25:23.153Z,64.17
2023-01-22T22:27:50.171Z,62.00
2023-01-22T22:30:17.609Z,65.00
2023-01-22T22:32:44.702Z,62.33
2023-01-22T22:35:11.971Z,64.10
2023-01-22T22:37:38.996Z,61.67
2023-01-22T22:40:06.480Z,66.63
2023-01-22T22:42:33.835Z,62.00
2023-01-22T22:45:00.865Z,59.67
2023-01-22T22:47:27.951Z,63.13
2023-01-22T22:49:54.936Z,66.67
2023-01-22T22:52:21.995Z,62.97
2023-01-22T22:54:49.871Z,63.67
2023-01-22T22:57:16.867Z,61.80
2023-01-22T22:59:43.754Z,66.87
2023-01-22T23:02:10.878Z,66.07
2023-01-22T23:04:37.892Z,67.67
2023-01-22T23:07:04.964Z,64.20
2023-01-22T23:09:31.852Z,65.57
2023-01-22T23:11:58.799Z,68.60
2023-01-22T23:14:26.304Z,63.37
2023-01-22T23:16:53.251Z,61.93
2023-01-22T23:19:24.598Z,65.10
2023-01-22T23:21:57.029Z,62.35
2023-01-22T23:24:24.171Z,60.10
2023-01-22T23:26:51.172Z,61.93
2023-01-22T23:29:20.983Z,66.03
2023-01-22T23:31:48.315Z,59.80
2023-01-22T23:34:17.131Z,59.40
2023-01-22T23:36:45.865Z,56.67
2023-01-22T23:39:14.546Z,60.30
2023-01-22T23:41:41.981Z,66.43
2023-01-22T23:44:08.900Z,60.43
2023-01-22T23:46:36.536Z,63.90
2023-01-22T23:49:04.456Z,60.23
2023-01-22T23:51:31.533Z,61.73
2023-01-22T23:53:58.515Z,59.13
2023-01-22T23:56:31.934Z,61.67
2023-01-22T23:58:59.115Z,60.30
